sensor_id;sensor_type;location;lat;lon;timestamp;P1;durP1;ratioP1;P2;durP2;ratioP2
33190;SDS011;19554;42.652;23.364;2022-10-30T00:00:50;14.73;;;7.38;;
33190;SDS011;19554;42.652;23.364;2022-10-30T00:03:16;14.13;;;8.25;;
33190;SDS011;19554;42.652;23.364;2022-10-30T00:05:43;12.10;;;8.07;;
33190;SDS011;19554;42.652;23.364;2022-10-30T00:08:10;14.45;;;8.38;;
33190;SDS011;19554;42.652;23.364;2022-10-30T00:10:37;10.40;;;6.63;;
33190;SDS011;19554;42.652;23.364;2022-10-30T00:13:03;12.02;;;7.57;;
33190;SDS011;19554;42.652;23.364;2022-10-30T00:15:29;12.88;;;7.60;;
33190;SDS011;19554;42.652;23.364;2022-10-30T00:17:54;11.50;;;7.95;;
33190;SDS011;19554;42.652;23.364;2022-10-30T00:20:19;13.50;;;7.35;;
33190;SDS011;19554;42.652;23.364;2022-10-30T00:22:45;13.90;;;7.55;;
33190;SDS011;19554;42.652;23.364;2022-10-30T00:25:10;12.38;;;7.80;;
33190;SDS011;19554;42.652;23.364;2022-10-30T00:27:35;13.02;;;8.13;;
33190;SDS011;19554;42.652;23.364;2022-10-30T00:30:01;17.63;;;9.02;;
33190;SDS011;19554;42.652;23.364;2022-10-30T00:32:26;16.60;;;10.45;;
33190;SDS011;19554;42.652;23.364;2022-10-30T00:34:52;14.48;;;9.23;;
33190;SDS011;19554;42.652;23.364;2022-10-30T00:37:17;12.15;;;7.88;;
33190;SDS011;19554;42.652;23.364;2022-10-30T00:39:43;16.83;;;8.63;;
33190;SDS011;19554;42.652;23.364;2022-10-30T00:42:11;12.07;;;8.93;;
33190;SDS011;19554;42.652;23.364;2022-10-30T00:47:14;13.57;;;8.32;;
33190;SDS011;19554;42.652;23.364;2022-10-30T00:53:02;12.82;;;8.00;;
33190;SDS011;19554;42.652;23.364;2022-10-30T00:55:54;21.13;;;10.20;;
33190;SDS011;19554;42.652;23.364;2022-10-30T00:58:22;19.65;;;13.05;;
33190;SDS011;19554;42.652;23.364;2022-10-30T01:00:53;24.33;;;12.55;;
33190;SDS011;19554;42.652;23.364;2022-10-30T01:03:21;22.27;;;12.52;;
33190;SDS011;19554;42.652;23.364;2022-10-30T01:05:51;23.80;;;13.18;;
33190;SDS011;19554;42.652;23.364;2022-10-30T01:08:21;22.55;;;11.43;;
33190;SDS011;19554;42.652;23.364;2022-10-30T01:10:47;16.63;;;10.55;;
33190;SDS011;19554;42.652;23.364;2022-10-30T01:13:12;18.48;;;11.93;;
33190;SDS011;19554;42.652;23.364;2022-10-30T01:15:51;16.42;;;10.70;;
33190;SDS011;19554;42.652;23.364;2022-10-30T01:26:55;13.02;;;8.88;;
33190;SDS011;19554;42.652;23.364;2022-10-30T01:35:09;13.80;;;9.50;;
33190;SDS011;19554;42.652;23.364;2022-10-30T01:38:18;12.82;;;8.52;;
33190;SDS011;19554;42.652;23.364;2022-10-30T01:40:49;12.43;;;9.77;;
33190;SDS011;19554;42.652;23.364;2022-10-30T01:43:14;14.27;;;9.90;;
33190;SDS011;19554;42.652;23.364;2022-10-30T01:48:57;14.77;;;9.30;;
33190;SDS011;19554;42.652;23.364;2022-10-30T01:59:31;10.95;;;7.57;;
33190;SDS011;19554;42.652;23.364;2022-10-30T02:02:03;15.27;;;8.60;;
33190;SDS011;19554;42.652;23.364;2022-10-30T02:04:29;13.85;;;8.30;;
33190;SDS011;19554;42.652;23.364;2022-10-30T02:06:55;15.32;;;8.50;;
33190;SDS011;19554;42.652;23.364;2022-10-30T02:09:21;15.25;;;8.77;;
33190;SDS011;19554;42.652;23.364;2022-10-30T02:11:46;10.90;;;8.75;;
33190;SDS011;19554;42.652;23.364;2022-10-30T02:14:14;14.10;;;8.80;;
33190;SDS011;19554;42.652;23.364;2022-10-30T02:19:11;15.43;;;8.80;;
33190;SDS011;19554;42.652;23.364;2022-10-30T02:21:36;15.98;;;8.68;;
33190;SDS011;19554;42.652;23.364;2022-10-30T02:24:02;15.10;;;8.50;;
33190;SDS011;19554;42.652;23.364;2022-10-30T02:26:27;16.33;;;9.55;;
33190;SDS011;19554;42.652;23.364;2022-10-30T02:28:52;15.20;;;9.77;;
33190;SDS011;19554;42.652;23.364;2022-10-30T02:31:18;12.77;;;8.07;;
33190;SDS011;19554;42.652;23.364;2022-10-30T02:33:46;13.85;;;8.10;;
33190;SDS011;19554;42.652;23.364;2022-10-30T02:36:12;10.77;;;8.15;;
33190;SDS011;19554;42.652;23.364;2022-10-30T02:38:41;11.63;;;8.27;;
33190;SDS011;19554;42.652;23.364;2022-10-30T02:41:07;15.48;;;8.98;;
33190;SDS011;19554;42.652;23.364;2022-10-30T02:43:34;16.77;;;9.68;;
33190;SDS011;19554;42.652;23.364;2022-10-30T02:45:59;14.48;;;9.80;;
33190;SDS011;19554;42.652;23.364;2022-10-30T02:48:24;15.55;;;9.68;;
33190;SDS011;19554;42.652;23.364;2022-10-30T02:50:50;14.63;;;9.45;;
33190;SDS011;19554;42.652;23.364;2022-10-30T02:53:15;12.68;;;9.77;;
33190;SDS011;19554;42.652;23.364;2022-10-30T02:55:41;12.13;;;9.02;;
33190;SDS011;19554;42.652;23.364;2022-10-30T02:58:06;13.40;;;9.05;;
33190;SDS011;19554;42.652;23.364;2022-10-30T03:00:32;11.63;;;8.95;;
33190;SDS011;19554;42.652;23.364;2022-10-30T03:02:57;14.52;;;8.90;;
33190;SDS011;19554;42.652;23.364;2022-10-30T03:05:23;18.63;;;8.63;;
33190;SDS011;19554;42.652;23.364;2022-10-30T03:07:49;12.02;;;9.35;;
33190;SDS011;19554;42.652;23.364;2022-10-30T03:10:15;15.15;;;9.60;;
33190;SDS011;19554;42.652;23.364;2022-10-30T03:12:41;14.38;;;9.57;;
33190;SDS011;19554;42.652;23.364;2022-10-30T03:15:07;15.13;;;10.35;;
33190;SDS011;19554;42.652;23.364;2022-10-30T03:17:33;16.13;;;10.43;;
33190;SDS011;19554;42.652;23.364;2022-10-30T03:19:58;16.55;;;10.57;;
33190;SDS011;19554;42.652;23.364;2022-10-30T03:22:23;16.25;;;10.02;;
33190;SDS011;19554;42.652;23.364;2022-10-30T03:24:49;15.52;;;10.43;;
33190;SDS011;19554;42.652;23.364;2022-10-30T03:27:14;15.82;;;10.93;;
33190;SDS011;19554;42.652;23.364;2022-10-30T03:29:39;16.10;;;10.38;;
33190;SDS011;19554;42.652;23.364;2022-10-30T03:32:08;16.30;;;10.50;;
33190;SDS011;19554;42.652;23.364;2022-10-30T03:34:35;15.45;;;10.77;;
33190;SDS011;19554;42.652;23.364;2022-10-30T03:37:00;16.05;;;11.07;;
33190;SDS011;19554;42.652;23.364;2022-10-30T03:39:26;17.30;;;10.48;;
33190;SDS011;19554;42.652;23.364;2022-10-30T03:41:51;15.35;;;9.55;;
33190;SDS011;19554;42.652;23.364;2022-10-30T03:44:17;13.57;;;10.07;;
33190;SDS011;19554;42.652;23.364;2022-10-30T03:46:42;12.07;;;9.80;;
33190;SDS011;19554;42.652;23.364;2022-10-30T03:49:07;14.63;;;10.10;;
33190;SDS011;19554;42.652;23.364;2022-10-30T03:51:33;16.75;;;10.27;;
33190;SDS011;19554;42.652;23.364;2022-10-30T03:53:58;15.73;;;10.65;;
33190;SDS011;19554;42.652;23.364;2022-10-30T03:56:24;20.15;;;10.82;;
33190;SDS011;19554;42.652;23.364;2022-10-30T03:58:49;15.73;;;10.57;;
33190;SDS011;19554;42.652;23.364;2022-10-30T04:01:14;15.93;;;11.05;;
33190;SDS011;19554;42.652;23.364;2022-10-30T04:03:40;15.68;;;10.35;;
33190;SDS011;19554;42.652;23.364;2022-10-30T04:06:05;15.35;;;10.02;;
33190;SDS011;19554;42.652;23.364;2022-10-30T04:08:31;17.13;;;10.68;;
33190;SDS011;19554;42.652;23.364;2022-10-30T04:10:57;13.20;;;9.93;;
33190;SDS011;19554;42.652;23.364;2022-10-30T04:13:23;13.07;;;10.07;;
33190;SDS011;19554;42.652;23.364;2022-10-30T04:15:48;12.07;;;9.85;;
33190;SDS011;19554;42.652;23.364;2022-10-30T04:18:15;15.15;;;10.45;;
33190;SDS011;19554;42.652;23.364;2022-10-30T04:20:40;13.95;;;10.07;;
33190;SDS011;19554;42.652;23.364;2022-10-30T04:23:07;15.95;;;10.77;;
33190;SDS011;19554;42.652;23.364;2022-10-30T04:25:37;13.02;;;9.98;;
33190;SDS011;19554;42.652;23.364;2022-10-30T04:28:02;15.60;;;9.80;;
33190;SDS011;19554;42.652;23.364;2022-10-30T04:30:28;16.63;;;11.93;;
33190;SDS011;19554;42.652;23.364;2022-10-30T04:32:59;16.80;;;11.48;;
33190;SDS011;19554;42.652;23.364;2022-10-30T04:35:26;17.67;;;10.77;;
33190;SDS011;19554;42.652;23.364;2022-10-30T04:37:57;16.15;;;10.98;;
33190;SDS011;19554;42.652;23.364;2022-10-30T04:40:35;20.13;;;10.30;;
33190;SDS011;19554;42.652;23.364;2022-10-30T04:43:02;20.80;;;11.48;;
33190;SDS011;19554;42.652;23.364;2022-10-30T04:45:28;19.15;;;10.85;;
33190;SDS011;19554;42.652;23.364;2022-10-30T04:47:59;18.55;;;11.23;;
33190;SDS011;19554;42.652;23.364;2022-10-30T04:50:25;15.65;;;11.02;;
33190;SDS011;19554;42.652;23.364;2022-10-30T04:52:58;17.63;;;11.43;;
33190;SDS011;19554;42.652;23.364;2022-10-30T04:55:28;15.20;;;11.60;;
33190;SDS011;19554;42.652;23.364;2022-10-30T04:57:54;14.43;;;10.68;;
33190;SDS011;19554;42.652;23.364;2022-10-30T05:00:21;19.67;;;11.57;;
33190;SDS011;19554;42.652;23.364;2022-10-30T05:02:46;18.25;;;12.00;;
33190;SDS011;19554;42.652;23.364;2022-10-30T05:05:12;16.83;;;11.88;;
33190;SDS011;19554;42.652;23.364;2022-10-30T05:07:37;18.17;;;11.75;;
33190;SDS011;19554;42.652;23.364;2022-10-30T05:10:02;15.00;;;10.77;;
33190;SDS011;19554;42.652;23.364;2022-10-30T05:12:28;21.40;;;12.98;;
33190;SDS011;19554;42.652;23.364;2022-10-30T05:14:53;18.38;;;12.98;;
33190;SDS011;19554;42.652;23.364;2022-10-30T05:17:19;14.57;;;11.65;;
33190;SDS011;19554;42.652;23.364;2022-10-30T05:19:45;15.10;;;11.10;;
33190;SDS011;19554;42.652;23.364;2022-10-30T05:22:10;14.60;;;10.98;;
33190;SDS011;19554;42.652;23.364;2022-10-30T05:24:36;19.23;;;11.75;;
33190;SDS011;19554;42.652;23.364;2022-10-30T05:27:02;21.23;;;14.23;;
33190;SDS011;19554;42.652;23.364;2022-10-30T05:29:27;18.95;;;12.80;;
33190;SDS011;19554;42.652;23.364;2022-10-30T05:31:53;17.88;;;11.90;;
33190;SDS011;19554;42.652;23.364;2022-10-30T05:34:18;18.15;;;12.05;;
33190;SDS011;19554;42.652;23.364;2022-10-30T05:36:43;25.30;;;13.52;;
33190;SDS011;19554;42.652;23.364;2022-10-30T05:39:09;21.95;;;13.63;;
33190;SDS011;19554;42.652;23.364;2022-10-30T05:41:34;25.50;;;13.40;;
33190;SDS011;19554;42.652;23.364;2022-10-30T05:43:59;23.85;;;12.60;;
33190;SDS011;19554;42.652;23.364;2022-10-30T05:46:25;27.25;;;14.10;;
33190;SDS011;19554;42.652;23.364;2022-10-30T05:48:50;42.78;;;23.17;;
33190;SDS011;19554;42.652;23.364;2022-10-30T05:51:16;44.53;;;22.83;;
33190;SDS011;19554;42.652;23.364;2022-10-30T05:53:41;31.80;;;15.75;;
33190;SDS011;19554;42.652;23.364;2022-10-30T05:56:06;36.40;;;21.60;;
33190;SDS011;19554;42.652;23.364;2022-10-30T05:58:32;32.40;;;17.85;;
33190;SDS011;19554;42.652;23.364;2022-10-30T06:00:57;37.85;;;13.63;;
33190;SDS011;19554;42.652;23.364;2022-10-30T06:03:22;26.70;;;12.40;;
33190;SDS011;19554;42.652;23.364;2022-10-30T06:05:48;25.60;;;12.55;;
33190;SDS011;19554;42.652;23.364;2022-10-30T06:08:13;28.65;;;12.63;;
33190;SDS011;19554;42.652;23.364;2022-10-30T06:10:42;20.58;;;12.13;;
33190;SDS011;19554;42.652;23.364;2022-10-30T06:13:08;22.13;;;12.23;;
33190;SDS011;19554;42.652;23.364;2022-10-30T06:15:34;25.15;;;14.55;;
33190;SDS011;19554;42.652;23.364;2022-10-30T06:17:59;22.73;;;14.77;;
33190;SDS011;19554;42.652;23.364;2022-10-30T06:20:26;23.90;;;13.52;;
33190;SDS011;19554;42.652;23.364;2022-10-30T06:22:53;23.05;;;13.68;;
33190;SDS011;19554;42.652;23.364;2022-10-30T06:25:19;20.95;;;12.95;;
33190;SDS011;19554;42.652;23.364;2022-10-30T06:27:45;23.40;;;13.68;;
33190;SDS011;19554;42.652;23.364;2022-10-30T06:30:11;34.67;;;21.45;;
33190;SDS011;19554;42.652;23.364;2022-10-30T06:32:36;28.45;;;15.52;;
33190;SDS011;19554;42.652;23.364;2022-10-30T06:35:01;27.27;;;15.93;;
33190;SDS011;19554;42.652;23.364;2022-10-30T06:37:27;30.42;;;18.13;;
33190;SDS011;19554;42.652;23.364;2022-10-30T06:39:53;26.77;;;16.27;;
33190;SDS011;19554;42.652;23.364;2022-10-30T06:42:18;24.17;;;14.75;;
33190;SDS011;19554;42.652;23.364;2022-10-30T06:44:43;30.48;;;17.00;;
33190;SDS011;19554;42.652;23.364;2022-10-30T06:47:09;26.02;;;15.55;;
33190;SDS011;19554;42.652;23.364;2022-10-30T06:49:34;26.40;;;14.00;;
33190;SDS011;19554;42.652;23.364;2022-10-30T06:51:59;26.55;;;14.80;;
33190;SDS011;19554;42.652;23.364;2022-10-30T06:54:25;20.25;;;12.90;;
33190;SDS011;19554;42.652;23.364;2022-10-30T06:56:50;24.98;;;13.80;;
33190;SDS011;19554;42.652;23.364;2022-10-30T06:59:15;23.05;;;14.52;;
33190;SDS011;19554;42.652;23.364;2022-10-30T07:01:41;24.30;;;13.07;;
33190;SDS011;19554;42.652;23.364;2022-10-30T07:04:06;24.85;;;14.68;;
33190;SDS011;19554;42.652;23.364;2022-10-30T07:06:32;27.98;;;14.73;;
33190;SDS011;19554;42.652;23.364;2022-10-30T07:08:57;22.17;;;14.43;;
33190;SDS011;19554;42.652;23.364;2022-10-30T07:11:23;33.65;;;13.77;;
33190;SDS011;19554;42.652;23.364;2022-10-30T07:13:48;24.95;;;14.95;;
33190;SDS011;19554;42.652;23.364;2022-10-30T07:16:13;28.10;;;15.55;;
33190;SDS011;19554;42.652;23.364;2022-10-30T07:18:39;23.60;;;15.57;;
33190;SDS011;19554;42.652;23.364;2022-10-30T07:21:04;27.27;;;15.55;;
33190;SDS011;19554;42.652;23.364;2022-10-30T07:23:30;27.60;;;18.00;;
33190;SDS011;19554;42.652;23.364;2022-10-30T07:25:55;28.42;;;17.40;;
33190;SDS011;19554;42.652;23.364;2022-10-30T07:28:20;32.35;;;19.52;;
33190;SDS011;19554;42.652;23.364;2022-10-30T07:30:46;26.42;;;17.35;;
33190;SDS011;19554;42.652;23.364;2022-10-30T07:33:11;31.65;;;17.15;;
33190;SDS011;19554;42.652;23.364;2022-10-30T07:35:36;27.05;;;15.90;;
33190;SDS011;19554;42.652;23.364;2022-10-30T07:38:03;24.55;;;15.73;;
33190;SDS011;19554;42.652;23.364;2022-10-30T07:40:29;24.30;;;15.07;;
33190;SDS011;19554;42.652;23.364;2022-10-30T07:42:56;21.13;;;13.77;;
33190;SDS011;19554;42.652;23.364;2022-10-30T07:45:22;29.08;;;14.50;;
33190;SDS011;19554;42.652;23.364;2022-10-30T07:47:47;18.92;;;14.10;;
33190;SDS011;19554;42.652;23.364;2022-10-30T07:50:13;18.13;;;13.73;;
33190;SDS011;19554;42.652;23.364;2022-10-30T07:52:38;20.13;;;15.02;;
33190;SDS011;19554;42.652;23.364;2022-10-30T07:55:04;22.42;;;15.63;;
33190;SDS011;19554;42.652;23.364;2022-10-30T07:57:36;22.75;;;13.95;;
33190;SDS011;19554;42.652;23.364;2022-10-30T08:00:06;23.58;;;13.95;;
33190;SDS011;19554;42.652;23.364;2022-10-30T08:02:36;19.50;;;13.43;;
33190;SDS011;19554;42.652;23.364;2022-10-30T08:05:02;23.75;;;12.85;;
33190;SDS011;19554;42.652;23.364;2022-10-30T08:07:32;23.83;;;12.73;;
33190;SDS011;19554;42.652;23.364;2022-10-30T08:09:59;21.92;;;14.35;;
33190;SDS011;19554;42.652;23.364;2022-10-30T08:12:25;21.65;;;15.55;;
33190;SDS011;19554;42.652;23.364;2022-10-30T08:14:51;18.83;;;13.27;;
33190;SDS011;19554;42.652;23.364;2022-10-30T08:17:17;17.88;;;12.00;;
33190;SDS011;19554;42.652;23.364;2022-10-30T08:19:43;18.98;;;12.27;;
33190;SDS011;19554;42.652;23.364;2022-10-30T08:22:09;22.92;;;12.55;;
33190;SDS011;19554;42.652;23.364;2022-10-30T08:24:35;20.15;;;12.23;;
33190;SDS011;19554;42.652;23.364;2022-10-30T08:27:00;18.88;;;12.50;;
33190;SDS011;19554;42.652;23.364;2022-10-30T08:29:26;20.95;;;12.43;;
33190;SDS011;19554;42.652;23.364;2022-10-30T08:31:51;20.55;;;13.02;;
33190;SDS011;19554;42.652;23.364;2022-10-30T08:34:17;17.63;;;12.15;;
33190;SDS011;19554;42.652;23.364;2022-10-30T08:36:42;18.88;;;12.15;;
33190;SDS011;19554;42.652;23.364;2022-10-30T08:39:08;23.52;;;12.75;;
33190;SDS011;19554;42.652;23.364;2022-10-30T08:41:33;19.35;;;12.65;;
33190;SDS011;19554;42.652;23.364;2022-10-30T08:43:58;21.35;;;12.88;;
33190;SDS011;19554;42.652;23.364;2022-10-30T08:46:24;21.77;;;14.05;;
33190;SDS011;19554;42.652;23.364;2022-10-30T08:48:49;20.17;;;12.88;;
33190;SDS011;19554;42.652;23.364;2022-10-30T08:51:15;18.63;;;11.85;;
33190;SDS011;19554;42.652;23.364;2022-10-30T08:53:40;21.35;;;12.50;;
33190;SDS011;19554;42.652;23.364;2022-10-30T08:56:05;21.60;;;12.98;;
33190;SDS011;19554;42.652;23.364;2022-10-30T08:58:31;20.08;;;12.88;;
33190;SDS011;19554;42.652;23.364;2022-10-30T09:00:56;26.35;;;12.85;;
33190;SDS011;19554;42.652;23.364;2022-10-30T09:03:22;22.10;;;12.63;;
33190;SDS011;19554;42.652;23.364;2022-10-30T09:05:47;19.50;;;12.77;;
33190;SDS011;19554;42.652;23.364;2022-10-30T09:08:13;18.10;;;12.82;;
33190;SDS011;19554;42.652;23.364;2022-10-30T09:10:39;23.02;;;13.90;;
33190;SDS011;19554;42.652;23.364;2022-10-30T09:13:04;20.58;;;13.35;;
33190;SDS011;19554;42.652;23.364;2022-10-30T09:15:30;19.75;;;13.82;;
33190;SDS011;19554;42.652;23.364;2022-10-30T09:17:56;20.05;;;13.02;;
33190;SDS011;19554;42.652;23.364;2022-10-30T09:20:23;18.95;;;13.45;;
33190;SDS011;19554;42.652;23.364;2022-10-30T09:22:49;23.23;;;13.18;;
33190;SDS011;19554;42.652;23.364;2022-10-30T09:25:14;20.00;;;14.63;;
33190;SDS011;19554;42.652;23.364;2022-10-30T09:27:40;18.58;;;13.57;;
33190;SDS011;19554;42.652;23.364;2022-10-30T09:30:06;21.63;;;13.63;;
33190;SDS011;19554;42.652;23.364;2022-10-30T09:32:32;21.20;;;14.05;;
33190;SDS011;19554;42.652;23.364;2022-10-30T09:34:57;21.02;;;14.20;;
33190;SDS011;19554;42.652;23.364;2022-10-30T09:37:23;23.00;;;15.10;;
33190;SDS011;19554;42.652;23.364;2022-10-30T09:39:48;26.30;;;14.88;;
33190;SDS011;19554;42.652;23.364;2022-10-30T09:47:49;21.50;;;14.85;;
33190;SDS011;19554;42.652;23.364;2022-10-30T09:50:36;25.77;;;14.82;;
33190;SDS011;19554;42.652;23.364;2022-10-30T09:53:29;27.27;;;15.80;;
33190;SDS011;19554;42.652;23.364;2022-10-30T09:56:30;26.80;;;16.60;;
33190;SDS011;19554;42.652;23.364;2022-10-30T09:59:36;23.23;;;14.75;;
33190;SDS011;19554;42.652;23.364;2022-10-30T10:02:31;27.08;;;13.82;;
33190;SDS011;19554;42.652;23.364;2022-10-30T10:07:54;23.52;;;14.07;;
33190;SDS011;19554;42.652;23.364;2022-10-30T10:10:37;20.15;;;13.18;;
33190;SDS011;19554;42.652;23.364;2022-10-30T10:15:43;18.13;;;11.77;;
33190;SDS011;19554;42.652;23.364;2022-10-30T10:18:22;16.33;;;10.40;;
33190;SDS011;19554;42.652;23.364;2022-10-30T10:20:56;15.05;;;11.07;;
33190;SDS011;19554;42.652;23.364;2022-10-30T10:23:29;21.58;;;11.73;;
33190;SDS011;19554;42.652;23.364;2022-10-30T10:26:29;17.67;;;11.35;;
33190;SDS011;19554;42.652;23.364;2022-10-30T10:34:42;16.23;;;9.13;;
33190;SDS011;19554;42.652;23.364;2022-10-30T10:37:37;14.38;;;8.25;;
33190;SDS011;19554;42.652;23.364;2022-10-30T10:50:32;13.68;;;7.90;;
33190;SDS011;19554;42.652;23.364;2022-10-30T10:53:06;17.10;;;9.45;;
33190;SDS011;19554;42.652;23.364;2022-10-30T10:55:38;17.58;;;9.07;;
33190;SDS011;19554;42.652;23.364;2022-10-30T10:58:06;15.52;;;9.32;;
33190;SDS011;19554;42.652;23.364;2022-10-30T11:00:39;15.40;;;10.05;;
33190;SDS011;19554;42.652;23.364;2022-10-30T11:08:32;13.98;;;8.55;;
33190;SDS011;19554;42.652;23.364;2022-10-30T11:11:02;13.02;;;8.15;;
33190;SDS011;19554;42.652;23.364;2022-10-30T11:13:30;15.45;;;7.95;;
33190;SDS011;19554;42.652;23.364;2022-10-30T11:18:25;13.68;;;6.95;;
33190;SDS011;19554;42.652;23.364;2022-10-30T11:23:43;9.23;;;6.00;;
33190;SDS011;19554;42.652;23.364;2022-10-30T11:26:32;10.35;;;5.20;;
33190;SDS011;19554;42.652;23.364;2022-10-30T11:28:58;10.35;;;4.85;;
33190;SDS011;19554;42.652;23.364;2022-10-30T11:31:32;9.95;;;5.15;;
33190;SDS011;19554;42.652;23.364;2022-10-30T11:36:43;9.10;;;5.07;;
33190;SDS011;19554;42.652;23.364;2022-10-30T11:39:19;9.13;;;4.82;;
33190;SDS011;19554;42.652;23.364;2022-10-30T11:44:19;10.23;;;4.70;;
33190;SDS011;19554;42.652;23.364;2022-10-30T11:46:46;12.52;;;4.68;;
33190;SDS011;19554;42.652;23.364;2022-10-30T11:49:29;11.95;;;4.82;;
33190;SDS011;19554;42.652;23.364;2022-10-30T11:51:56;9.93;;;3.90;;
33190;SDS011;19554;42.652;23.364;2022-10-30T11:54:22;8.55;;;4.10;;
33190;SDS011;19554;42.652;23.364;2022-10-30T11:56:48;7.65;;;4.25;;
33190;SDS011;19554;42.652;23.364;2022-10-30T11:59:17;8.80;;;4.40;;
33190;SDS011;19554;42.652;23.364;2022-10-30T12:04:46;7.10;;;4.22;;
33190;SDS011;19554;42.652;23.364;2022-10-30T12:07:23;7.13;;;4.30;;
33190;SDS011;19554;42.652;23.364;2022-10-30T12:09:55;8.07;;;4.10;;
33190;SDS011;19554;42.652;23.364;2022-10-30T12:12:35;5.93;;;4.20;;
33190;SDS011;19554;42.652;23.364;2022-10-30T12:15:09;8.18;;;3.80;;
33190;SDS011;19554;42.652;23.364;2022-10-30T12:17:50;8.98;;;4.00;;
33190;SDS011;19554;42.652;23.364;2022-10-30T12:20:17;8.50;;;4.57;;
33190;SDS011;19554;42.652;23.364;2022-10-30T12:22:43;6.57;;;4.20;;
33190;SDS011;19554;42.652;23.364;2022-10-30T12:25:41;6.25;;;3.80;;
33190;SDS011;19554;42.652;23.364;2022-10-30T12:28:05;5.45;;;4.15;;
33190;SDS011;19554;42.652;23.364;2022-10-30T12:30:37;6.85;;;4.30;;
33190;SDS011;19554;42.652;23.364;2022-10-30T12:33:19;13.77;;;4.43;;
33190;SDS011;19554;42.652;23.364;2022-10-30T12:38:24;12.25;;;5.65;;
33190;SDS011;19554;42.652;23.364;2022-10-30T12:43:44;11.77;;;5.15;;
33190;SDS011;19554;42.652;23.364;2022-10-30T12:46:14;9.65;;;4.65;;
33190;SDS011;19554;42.652;23.364;2022-10-30T12:48:51;9.95;;;4.93;;
33190;SDS011;19554;42.652;23.364;2022-10-30T12:52:27;8.85;;;3.53;;
33190;SDS011;19554;42.652;23.364;2022-10-30T13:00:06;6.90;;;3.20;;
33190;SDS011;19554;42.652;23.364;2022-10-30T13:05:44;5.80;;;3.70;;
33190;SDS011;19554;42.652;23.364;2022-10-30T13:08:29;4.97;;;3.38;;
33190;SDS011;19554;42.652;23.364;2022-10-30T13:11:02;6.78;;;3.22;;
33190;SDS011;19554;42.652;23.364;2022-10-30T13:13:32;7.00;;;2.90;;
33190;SDS011;19554;42.652;23.364;2022-10-30T13:16:01;4.57;;;3.10;;
33190;SDS011;19554;42.652;23.364;2022-10-30T13:18:30;9.43;;;3.55;;
33190;SDS011;19554;42.652;23.364;2022-10-30T13:26:31;8.40;;;3.80;;
33190;SDS011;19554;42.652;23.364;2022-10-30T13:31:49;7.28;;;3.05;;
33190;SDS011;19554;42.652;23.364;2022-10-30T13:34:26;7.72;;;3.22;;
33190;SDS011;19554;42.652;23.364;2022-10-30T13:37:15;5.88;;;2.67;;
33190;SDS011;19554;42.652;23.364;2022-10-30T13:39:53;10.90;;;3.20;;
33190;SDS011;19554;42.652;23.364;2022-10-30T13:48:39;8.50;;;4.05;;
33190;SDS011;19554;42.652;23.364;2022-10-30T13:53:48;5.55;;;2.53;;
33190;SDS011;19554;42.652;23.364;2022-10-30T13:56:25;8.00;;;3.22;;
33190;SDS011;19554;42.652;23.364;2022-10-30T14:02:19;9.98;;;3.22;;
33190;SDS011;19554;42.652;23.364;2022-10-30T14:04:28;4.70;;;2.40;;
33190;SDS011;19554;42.652;23.364;2022-10-30T14:10:07;5.97;;;2.42;;
33190;SDS011;19554;42.652;23.364;2022-10-30T14:15:30;10.32;;;3.00;;
33190;SDS011;19554;42.652;23.364;2022-10-30T14:23:44;9.10;;;4.00;;
33190;SDS011;19554;42.652;23.364;2022-10-30T14:28:31;11.85;;;3.53;;
33190;SDS011;19554;42.652;23.364;2022-10-30T14:31:02;4.47;;;2.85;;
33190;SDS011;19554;42.652;23.364;2022-10-30T14:39:00;9.23;;;3.65;;
33190;SDS011;19554;42.652;23.364;2022-10-30T14:44:40;6.25;;;2.78;;
33190;SDS011;19554;42.652;23.364;2022-10-30T14:50:26;9.15;;;3.00;;
33190;SDS011;19554;42.652;23.364;2022-10-30T14:58:20;10.13;;;2.83;;
33190;SDS011;19554;42.652;23.364;2022-10-30T15:00:49;10.35;;;2.88;;
33190;SDS011;19554;42.652;23.364;2022-10-30T15:04:03;8.82;;;3.15;;
33190;SDS011;19554;42.652;23.364;2022-10-30T15:12:21;8.93;;;4.10;;
33190;SDS011;19554;42.652;23.364;2022-10-30T15:14:58;10.20;;;3.60;;
33190;SDS011;19554;42.652;23.364;2022-10-30T15:17:31;11.18;;;3.40;;
33190;SDS011;19554;42.652;23.364;2022-10-30T15:20:30;11.75;;;3.72;;
33190;SDS011;19554;42.652;23.364;2022-10-30T15:23:01;9.52;;;3.63;;
33190;SDS011;19554;42.652;23.364;2022-10-30T15:25:52;8.10;;;4.10;;
33190;SDS011;19554;42.652;23.364;2022-10-30T15:28:21;12.63;;;4.30;;
33190;SDS011;19554;42.652;23.364;2022-10-30T15:31:03;10.95;;;4.05;;
33190;SDS011;19554;42.652;23.364;2022-10-30T15:33:45;8.55;;;4.00;;
33190;SDS011;19554;42.652;23.364;2022-10-30T15:36:53;13.25;;;3.67;;
33190;SDS011;19554;42.652;23.364;2022-10-30T15:41:51;10.20;;;4.57;;
33190;SDS011;19554;42.652;23.364;2022-10-30T15:44:23;10.50;;;4.53;;
33190;SDS011;19554;42.652;23.364;2022-10-30T15:46:51;9.75;;;4.07;;
33190;SDS011;19554;42.652;23.364;2022-10-30T15:49:39;8.27;;;4.63;;
33190;SDS011;19554;42.652;23.364;2022-10-30T15:52:21;18.05;;;4.60;;
33190;SDS011;19554;42.652;23.364;2022-10-30T15:54:58;11.48;;;4.03;;
33190;SDS011;19554;42.652;23.364;2022-10-30T15:57:30;12.77;;;4.05;;
33190;SDS011;19554;42.652;23.364;2022-10-30T16:00:01;9.63;;;4.10;;
33190;SDS011;19554;42.652;23.364;2022-10-30T16:02:30;10.45;;;4.50;;
33190;SDS011;19554;42.652;23.364;2022-10-30T16:04:56;11.98;;;5.43;;
33190;SDS011;19554;42.652;23.364;2022-10-30T16:07:22;12.00;;;4.90;;
33190;SDS011;19554;42.652;23.364;2022-10-30T16:09:59;13.90;;;4.38;;
33190;SDS011;19554;42.652;23.364;2022-10-30T16:12:28;8.82;;;4.15;;
33190;SDS011;19554;42.652;23.364;2022-10-30T16:14:54;12.52;;;7.03;;
33190;SDS011;19554;42.652;23.364;2022-10-30T16:17:21;11.82;;;4.88;;
33190;SDS011;19554;42.652;23.364;2022-10-30T16:19:50;16.55;;;5.57;;
33190;SDS011;19554;42.652;23.364;2022-10-30T16:22:23;8.55;;;4.93;;
33190;SDS011;19554;42.652;23.364;2022-10-30T16:24:52;11.35;;;4.20;;
33190;SDS011;19554;42.652;23.364;2022-10-30T16:27:20;8.70;;;5.13;;
33190;SDS011;19554;42.652;23.364;2022-10-30T16:29:48;10.65;;;5.57;;
33190;SDS011;19554;42.652;23.364;2022-10-30T16:32:16;10.02;;;4.95;;
33190;SDS011;19554;42.652;23.364;2022-10-30T16:34:44;17.08;;;9.30;;
33190;SDS011;19554;42.652;23.364;2022-10-30T16:40:01;9.18;;;4.90;;
33190;SDS011;19554;42.652;23.364;2022-10-30T16:42:30;12.43;;;6.00;;
33190;SDS011;19554;42.652;23.364;2022-10-30T16:47:38;11.18;;;5.97;;
33190;SDS011;19554;42.652;23.364;2022-10-30T16:50:10;10.85;;;5.25;;
33190;SDS011;19554;42.652;23.364;2022-10-30T16:52:39;15.27;;;5.00;;
33190;SDS011;19554;42.652;23.364;2022-10-30T16:55:06;9.55;;;4.63;;
33190;SDS011;19554;42.652;23.364;2022-10-30T16:57:42;10.82;;;5.05;;
33190;SDS011;19554;42.652;23.364;2022-10-30T17:00:17;9.23;;;5.47;;
33190;SDS011;19554;42.652;23.364;2022-10-30T17:02:45;10.68;;;5.30;;
33190;SDS011;19554;42.652;23.364;2022-10-30T17:05:22;12.63;;;4.78;;
33190;SDS011;19554;42.652;23.364;2022-10-30T17:08:01;8.20;;;5.07;;